sensor_id;sensor_type;location;lat;lon;timestamp;pressure;altitude;pressure_sealevel;temperature;humidity
10840;BME280;5473;42.706;23.328;2022-12-11T00:01:10;-14565.91;;;-142.93;82.72
10840;BME280;5473;42.706;23.328;2022-12-11T00:03:37;-14565.91;;;-142.93;82.85
10840;BME280;5473;42.706;23.328;2022-12-11T00:06:05;-14565.91;;;-142.93;83.13
10840;BME280;5473;42.706;23.328;2022-12-11T00:08:32;-14565.91;;;-142.93;83.28
10840;BME280;5473;42.706;23.328;2022-12-11T00:10:59;-14565.91;;;-142.93;83.27
10840;BME280;5473;42.706;23.328;2022-12-11T00:13:27;-14565.91;;;-142.93;83.57
10840;BME280;5473;42.706;23.328;2022-12-11T00:15:54;-14565.91;;;-142.93;83.74
10840;BME280;5473;42.706;23.328;2022-12-11T00:18:23;-14565.91;;;-142.93;83.76
10840;BME280;5473;42.706;23.328;2022-12-11T00:20:50;-14565.91;;;-142.93;83.67
10840;BME280;5473;42.706;23.328;2022-12-11T00:23:16;-14565.91;;;-142.93;83.48
10840;BME280;5473;42.706;23.328;2022-12-11T00:25:44;-14565.91;;;-142.93;83.60
10840;BME280;5473;42.706;23.328;2022-12-11T00:28:13;-14565.91;;;-142.93;83.58
10840;BME280;5473;42.706;23.328;2022-12-11T00:30:42;-14565.91;;;-142.93;84.08
10840;BME280;5473;42.706;23.328;2022-12-11T00:33:09;-14565.91;;;-142.93;84.74
10840;BME280;5473;42.706;23.328;2022-12-11T00:35:37;-14565.91;;;-142.93;85.35
10840;BME280;5473;42.706;23.328;2022-12-11T00:38:04;-14565.91;;;-142.93;85.48
10840;BME280;5473;42.706;23.328;2022-12-11T00:40:32;-14565.91;;;-142.93;86.02
10840;BME280;5473;42.706;23.328;2022-12-11T00:42:59;-14565.91;;;-142.93;86.59
10840;BME280;5473;42.706;23.328;2022-12-11T00:45:26;-14565.91;;;-142.93;86.89
10840;BME280;5473;42.706;23.328;2022-12-11T00:47:54;-14565.91;;;-142.93;87.02
10840;BME280;5473;42.706;23.328;2022-12-11T00:50:21;-14565.91;;;-142.93;87.19
10840;BME280;5473;42.706;23.328;2022-12-11T00:52:48;-14565.91;;;-142.93;87.42
10840;BME280;5473;42.706;23.328;2022-12-11T00:55:15;-14565.91;;;-142.93;87.58
10840;BME280;5473;42.706;23.328;2022-12-11T00:57:42;-14565.91;;;-142.93;87.51
10840;BME280;5473;42.706;23.328;2022-12-11T01:00:10;-14565.91;;;-142.93;87.87
10840;BME280;5473;42.706;23.328;2022-12-11T01:02:38;-14565.91;;;-142.93;87.86
10840;BME280;5473;42.706;23.328;2022-12-11T01:05:08;-14565.91;;;-142.93;88.10
10840;BME280;5473;42.706;23.328;2022-12-11T01:07:35;-14565.91;;;-142.93;88.13
10840;BME280;5473;42.706;23.328;2022-12-11T01:10:02;-14565.91;;;-142.93;88.67
10840;BME280;5473;42.706;23.328;2022-12-11T01:12:47;-14565.91;;;-142.93;89.12
10840;BME280;5473;42.706;23.328;2022-12-11T01:15:14;-14565.91;;;-142.93;88.85
10840;BME280;5473;42.706;23.328;2022-12-11T01:17:41;-14565.91;;;-142.93;88.62
10840;BME280;5473;42.706;23.328;2022-12-11T01:20:09;-14565.91;;;-142.93;88.56
10840;BME280;5473;42.706;23.328;2022-12-11T01:22:36;-14565.91;;;-142.93;89.06
10840;BME280;5473;42.706;23.328;2022-12-11T01:25:03;-14565.91;;;-142.93;90.01
10840;BME280;5473;42.706;23.328;2022-12-11T01:27:30;-14565.91;;;-142.93;90.96
10840;BME280;5473;42.706;23.328;2022-12-11T01:29:57;-14565.91;;;-142.93;90.34
10840;BME280;5473;42.706;23.328;2022-12-11T01:32:24;-14565.91;;;-142.93;89.79
10840;BME280;5473;42.706;23.328;2022-12-11T01:34:51;-14565.91;;;-142.93;88.11
10840;BME280;5473;42.706;23.328;2022-12-11T01:37:19;-14565.91;;;-142.93;85.27
10840;BME280;5473;42.706;23.328;2022-12-11T01:39:45;-14565.91;;;-142.93;82.16
10840;BME280;5473;42.706;23.328;2022-12-11T01:42:15;-14565.91;;;-142.93;80.15
10840;BME280;5473;42.706;23.328;2022-12-11T01:47:55;-14565.91;;;-142.93;78.96
10840;BME280;5473;42.706;23.328;2022-12-11T01:50:23;-14565.91;;;-142.93;78.23
10840;BME280;5473;42.706;23.328;2022-12-11T01:52:52;-14565.91;;;-142.93;78.01
10840;BME280;5473;42.706;23.328;2022-12-11T01:55:19;-14565.91;;;-142.93;77.79
10840;BME280;5473;42.706;23.328;2022-12-11T01:57:48;-14565.91;;;-142.93;77.35
10840;BME280;5473;42.706;23.328;2022-12-11T02:00:17;-14565.91;;;-142.93;76.26
10840;BME280;5473;42.706;23.328;2022-12-11T02:02:44;-14565.91;;;-142.93;75.09
10840;BME280;5473;42.706;23.328;2022-12-11T02:05:11;-14565.91;;;-142.93;74.00
10840;BME280;5473;42.706;23.328;2022-12-11T02:07:41;-14565.91;;;-142.93;73.28
10840;BME280;5473;42.706;23.328;2022-12-11T02:10:10;-14565.91;;;-142.93;72.54
10840;BME280;5473;42.706;23.328;2022-12-11T02:12:43;-14565.91;;;-142.93;72.73
10840;BME280;5473;42.706;23.328;2022-12-11T02:15:19;-14565.91;;;-142.93;73.00
10840;BME280;5473;42.706;23.328;2022-12-11T02:17:52;-14565.91;;;-142.93;73.97
10840;BME280;5473;42.706;23.328;2022-12-11T02:20:23;-14565.91;;;-142.93;74.26
10840;BME280;5473;42.706;23.328;2022-12-11T02:25:52;-14565.91;;;-142.93;80.02
10840;BME280;5473;42.706;23.328;2022-12-11T02:28:27;-14565.91;;;-142.93;81.98
10840;BME280;5473;42.706;23.328;2022-12-11T02:31:00;-14565.91;;;-142.93;82.53
10840;BME280;5473;42.706;23.328;2022-12-11T02:33:35;-14565.91;;;-142.93;82.89
10840;BME280;5473;42.706;23.328;2022-12-11T02:36:08;-14565.91;;;-142.93;90.05
10840;BME280;5473;42.706;23.328;2022-12-11T02:38:37;-14565.91;;;-142.93;99.28
10840;BME280;5473;42.706;23.328;2022-12-11T02:41:06;-14565.91;;;-142.93;100.00
10840;BME280;5473;42.706;23.328;2022-12-11T02:43:37;-14565.91;;;-142.93;100.00
10840;BME280;5473;42.706;23.328;2022-12-11T02:46:06;-14565.91;;;-142.93;100.00
10840;BME280;5473;42.706;23.328;2022-12-11T02:48:33;-14565.91;;;-142.93;100.00
10840;BME280;5473;42.706;23.328;2022-12-11T02:51:03;-14565.91;;;-142.93;100.00
10840;BME280;5473;42.706;23.328;2022-12-11T02:53:31;-14565.91;;;-142.93;100.00
10840;BME280;5473;42.706;23.328;2022-12-11T02:56:05;-14565.91;;;-142.93;100.00
10840;BME280;5473;42.706;23.328;2022-12-11T02:58:38;-14565.91;;;-142.93;100.00
10840;BME280;5473;42.706;23.328;2022-12-11T03:01:09;-14565.91;;;-142.93;100.00
10840;BME280;5473;42.706;23.328;2022-12-11T03:03:36;-14565.91;;;-142.93;100.00
10840;BME280;5473;42.706;23.328;2022-12-11T03:06:03;-14565.91;;;-142.93;100.00
10840;BME280;5473;42.706;23.328;2022-12-11T03:08:30;-14565.91;;;-142.93;100.00
10840;BME280;5473;42.706;23.328;2022-12-11T03:10:57;-14565.91;;;-142.93;100.00
10840;BME280;5473;42.706;23.328;2022-12-11T03:13:24;-14565.91;;;-142.93;100.00
10840;BME280;5473;42.706;23.328;2022-12-11T03:16:05;-14565.91;;;-142.93;100.00
10840;BME280;5473;42.706;23.328;2022-12-11T03:18:39;-14565.91;;;-142.93;100.00
10840;BME280;5473;42.706;23.328;2022-12-11T03:21:13;-14313.72;;;-142.93;100.00
10840;BME280;5473;42.706;23.328;2022-12-11T03:23:47;-13561.44;;;-142.93;100.00
10840;BME280;5473;42.706;23.328;2022-12-11T03:26:16;-13812.22;;;-142.93;100.00
10840;BME280;5473;42.706;23.328;2022-12-11T03:28:46;-13812.22;;;-142.93;100.00
10840;BME280;5473;42.706;23.328;2022-12-11T03:31:21;-13310.63;;;-142.93;100.00
10840;BME280;5473;42.706;23.328;2022-12-11T03:33:53;-13561.44;;;-142.93;100.00
10840;BME280;5473;42.706;23.328;2022-12-11T03:36:24;-14062.97;;;-142.93;100.00
10840;BME280;5473;42.706;23.328;2022-12-11T03:38:56;-14062.97;;;-142.93;100.00
10840;BME280;5473;42.706;23.328;2022-12-11T03:41:25;-14062.97;;;-142.93;100.00
10840;BME280;5473;42.706;23.328;2022-12-11T03:43:55;-14062.97;;;-142.93;100.00
10840;BME280;5473;42.706;23.328;2022-12-11T03:46:27;-14313.72;;;-142.93;100.00
10840;BME280;5473;42.706;23.328;2022-12-11T03:48:59;-14062.97;;;-142.93;100.00
10840;BME280;5473;42.706;23.328;2022-12-11T03:51:28;-14313.72;;;-142.93;100.00
10840;BME280;5473;42.706;23.328;2022-12-11T03:53:57;-14564.44;;;-142.93;100.00
10840;BME280;5473;42.706;23.328;2022-12-11T03:56:26;-14564.44;;;-142.93;100.00
10840;BME280;5473;42.706;23.328;2022-12-11T03:58:54;-14564.44;;;-142.93;100.00
10840;BME280;5473;42.706;23.328;2022-12-11T04:01:20;-14564.44;;;-142.93;100.00
10840;BME280;5473;42.706;23.328;2022-12-11T04:03:49;-14564.44;;;-142.93;100.00
10840;BME280;5473;42.706;23.328;2022-12-11T04:06:15;-14564.44;;;-142.93;100.00
10840;BME280;5473;42.706;23.328;2022-12-11T04:08:42;-14313.72;;;-142.93;100.00
10840;BME280;5473;42.706;23.328;2022-12-11T04:11:09;-14564.44;;;-142.93;100.00
10840;BME280;5473;42.706;23.328;2022-12-11T04:13:53;-14564.44;;;-142.93;100.00
10840;BME280;5473;42.706;23.328;2022-12-11T04:16:34;-14564.44;;;-142.93;100.00
10840;BME280;5473;42.706;23.328;2022-12-11T04:19:02;-14565.91;;;-142.93;100.00
10840;BME280;5473;42.706;23.328;2022-12-11T04:21:47;-14565.91;;;-142.93;100.00
10840;BME280;5473;42.706;23.328;2022-12-11T04:24:31;-14565.91;;;-142.93;100.00
10840;BME280;5473;42.706;23.328;2022-12-11T04:26:57;-14565.91;;;-142.93;100.00
10840;BME280;5473;42.706;23.328;2022-12-11T04:29:24;-14564.44;;;-142.93;100.00
10840;BME280;5473;42.706;23.328;2022-12-11T04:31:51;-14564.44;;;-142.93;100.00
10840;BME280;5473;42.706;23.328;2022-12-11T04:34:19;-13059.81;;;-142.93;100.00
10840;BME280;5473;42.706;23.328;2022-12-11T04:36:46;-12307.22;;;-142.93;100.00
10840;BME280;5473;42.706;23.328;2022-12-11T04:39:13;-12307.22;;;-142.93;100.00
10840;BME280;5473;42.706;23.328;2022-12-11T04:41:40;-12808.97;;;-142.93;100.00
10840;BME280;5473;42.706;23.328;2022-12-11T04:44:07;-13059.81;;;-142.93;100.00
10840;BME280;5473;42.706;23.328;2022-12-11T04:46:34;-12056.34;;;-142.93;100.00
10840;BME280;5473;42.706;23.328;2022-12-11T04:49:01;-12307.22;;;-142.93;100.00
10840;BME280;5473;42.706;23.328;2022-12-11T04:51:29;-11303.53;;;-142.93;100.00
10840;BME280;5473;42.706;23.328;2022-12-11T04:53:57;-9295.19;;;-142.93;100.00
10840;BME280;5473;42.706;23.328;2022-12-11T04:56:24;-6280.34;;;-142.93;100.00
10840;BME280;5473;42.706;23.328;2022-12-11T04:58:51;-6531.69;;;-142.93;100.00
10840;BME280;5473;42.706;23.328;2022-12-11T05:01:19;-5023.34;;;-142.93;100.00
10840;BME280;5473;42.706;23.328;2022-12-11T05:03:47;-3514.31;;;-142.93;100.00
10840;BME280;5473;42.706;23.328;2022-12-11T05:06:14;-2004.56;;;-142.93;100.00
10840;BME280;5473;42.706;23.328;2022-12-11T05:08:43;-997.69;;;-142.93;100.00
10840;BME280;5473;42.706;23.328;2022-12-11T05:11:12;2276.78;;;-142.93;100.00
10840;BME280;5473;42.706;23.328;2022-12-11T05:13:39;4545.66;;;-142.93;100.00
10840;BME280;5473;42.706;23.328;2022-12-11T05:16:08;3284.97;;;-142.93;100.00
10840;BME280;5473;42.706;23.328;2022-12-11T05:18:35;2780.84;;;-142.93;100.00
10840;BME280;5473;42.706;23.328;2022-12-11T05:21:04;3284.97;;;-142.93;100.00
10840;BME280;5473;42.706;23.328;2022-12-11T05:23:31;10351.00;;;-142.93;98.37
10840;BME280;5473;42.706;23.328;2022-12-11T05:26:01;10098.38;;;-142.93;98.64
10840;BME280;5473;42.706;23.328;2022-12-11T05:28:31;13636.81;;;-142.93;96.35
10840;BME280;5473;42.706;23.328;2022-12-11T05:31:00;13636.81;;;-142.93;96.75
10840;BME280;5473;42.706;23.328;2022-12-11T05:33:28;10098.38;;;-142.93;99.42
10840;BME280;5473;42.706;23.328;2022-12-11T05:35:55;10351.00;;;-142.93;99.69
10840;BME280;5473;42.706;23.328;2022-12-11T05:38:22;9088.09;;;-142.93;100.00
10840;BME280;5473;42.706;23.328;2022-12-11T05:40:55;9845.78;;;-142.93;100.00
10840;BME280;5473;42.706;23.328;2022-12-11T05:43:25;8078.13;;;-142.93;100.00
10840;BME280;5473;42.706;23.328;2022-12-11T05:45:53;6311.41;;;-142.93;100.00
10840;BME280;5473;42.706;23.328;2022-12-11T05:48:20;7068.47;;;-142.93;100.00
10840;BME280;5473;42.706;23.328;2022-12-11T05:50:55;5302.28;;;-142.93;100.00
10840;BME280;5473;42.706;23.328;2022-12-11T05:53:22;3789.19;;;-142.93;100.00
10840;BME280;5473;42.706;23.328;2022-12-11T05:55:49;2780.84;;;-142.93;100.00
10840;BME280;5473;42.706;23.328;2022-12-11T05:58:16;3789.19;;;-142.93;100.00
10840;BME280;5473;42.706;23.328;2022-12-11T06:00:44;3537.09;;;-142.93;100.00
10840;BME280;5473;42.706;23.328;2022-12-11T06:03:11;3789.19;;;-142.93;100.00
10840;BME280;5473;42.706;23.328;2022-12-11T06:05:39;5806.81;;;-142.93;100.00
10840;BME280;5473;42.706;23.328;2022-12-11T06:08:06;9088.09;;;-142.93;100.00
10840;BME280;5473;42.706;23.328;2022-12-11T06:10:33;8078.13;;;-142.93;100.00
10840;BME280;5473;42.706;23.328;2022-12-11T06:12:59;5554.56;;;-142.93;100.00
10840;BME280;5473;42.706;23.328;2022-12-11T06:15:26;1520.84;;;-142.93;100.00
10840;BME280;5473;42.706;23.328;2022-12-11T06:17:54;1016.97;;;-142.93;100.00
10840;BME280;5473;42.706;23.328;2022-12-11T06:20:21;2276.78;;;-142.93;100.00
10840;BME280;5473;42.706;23.328;2022-12-11T06:22:48;-494.16;;;-142.93;100.00
10840;BME280;5473;42.706;23.328;2022-12-11T06:25:14;-494.16;;;-142.93;100.00
10840;BME280;5473;42.706;23.328;2022-12-11T06:27:41;9088.09;;;-142.93;100.00
10840;BME280;5473;42.706;23.328;2022-12-11T06:30:09;6059.09;;;-142.93;100.00
10840;BME280;5473;42.706;23.328;2022-12-11T06:32:36;5050.06;;;-142.93;100.00
10840;BME280;5473;42.706;23.328;2022-12-11T06:35:05;9593.19;;;-142.93;100.00
10840;BME280;5473;42.706;23.328;2022-12-11T06:37:33;13636.81;;;-142.93;100.00
10840;BME280;5473;42.706;23.328;2022-12-11T06:40:00;13131.09;;;-142.93;100.00
10840;BME280;5473;42.706;23.328;2022-12-11T06:42:28;11867.13;;;-142.93;100.00
10840;BME280;5473;42.706;23.328;2022-12-11T06:44:55;12878.25;;;-142.93;100.00
10840;BME280;5473;42.706;23.328;2022-12-11T06:47:24;23359.28;;;-142.93;97.38
10840;BME280;5473;42.706;23.328;2022-12-11T06:49:51;23642.63;;;-142.93;97.78
10840;BME280;5473;42.706;23.328;2022-12-11T06:52:20;21738.84;;;-142.93;98.76
10840;BME280;5473;42.706;23.328;2022-12-11T06:54:47;16166.56;;;-142.93;100.00
10840;BME280;5473;42.706;23.328;2022-12-11T06:57:14;11614.38;;;-142.93;100.00
10840;BME280;5473;42.706;23.328;2022-12-11T06:59:41;10351.00;;;-142.93;100.00
10840;BME280;5473;42.706;23.328;2022-12-11T07:02:10;8835.56;;;-142.93;100.00
10840;BME280;5473;42.706;23.328;2022-12-11T07:04:38;6311.41;;;-142.93;100.00
10840;BME280;5473;42.706;23.328;2022-12-11T07:07:05;7573.25;;;-142.93;100.00
10840;BME280;5473;42.706;23.328;2022-12-11T07:09:34;13889.69;;;-142.93;100.00
10840;BME280;5473;42.706;23.328;2022-12-11T07:12:02;22566.78;;;-142.93;98.54
10840;BME280;5473;42.706;23.328;2022-12-11T07:14:29;18445.00;;;-142.93;100.00
10840;BME280;5473;42.706;23.328;2022-12-11T07:16:56;14648.47;;;-142.93;100.00
10840;BME280;5473;42.706;23.328;2022-12-11T07:19:24;14395.53;;;-142.93;100.00
10840;BME280;5473;42.706;23.328;2022-12-11T07:21:51;16925.88;;;-142.93;100.00
10840;BME280;5473;42.706;23.328;2022-12-11T07:24:18;14901.44;;;-142.93;100.00
10840;BME280;5473;42.706;23.328;2022-12-11T07:26:46;14648.47;;;-142.93;100.00
10840;BME280;5473;42.706;23.328;2022-12-11T07:29:13;13131.09;;;-142.93;100.00
10840;BME280;5473;42.706;23.328;2022-12-11T07:31:39;13383.94;;;-142.93;100.00
10840;BME280;5473;42.706;23.328;2022-12-11T07:34:06;12625.44;;;-142.93;100.00
10840;BME280;5473;42.706;23.328;2022-12-11T07:36:33;7068.47;;;-142.93;100.00
10840;BME280;5473;42.706;23.328;2022-12-11T07:39:00;2276.78;;;-142.93;100.00
10840;BME280;5473;42.706;23.328;2022-12-11T07:41:27;3284.97;;;-142.93;100.00
10840;BME280;5473;42.706;23.328;2022-12-11T07:43:58;3537.09;;;-142.93;100.00
10840;BME280;5473;42.706;23.328;2022-12-11T07:46:27;261.34;;;-142.93;100.00
10840;BME280;5473;42.706;23.328;2022-12-11T07:48:54;-745.94;;;-142.93;100.00
10840;BME280;5473;42.706;23.328;2022-12-11T07:51:23;-2004.56;;;-142.93;100.00
10840;BME280;5473;42.706;23.328;2022-12-11T07:53:53;-1249.44;;;-142.93;100.00
10840;BME280;5473;42.706;23.328;2022-12-11T07:56:20;-1752.88;;;-142.93;100.00
10840;BME280;5473;42.706;23.328;2022-12-11T07:58:47;-2507.91;;;-142.93;100.00
10840;BME280;5473;42.706;23.328;2022-12-11T08:01:17;-3011.16;;;-142.93;100.00
10840;BME280;5473;42.706;23.328;2022-12-11T08:03:45;-2759.53;;;-142.93;100.00
10840;BME280;5473;42.706;23.328;2022-12-11T08:06:12;-997.69;;;-142.93;100.00
10840;BME280;5473;42.706;23.328;2022-12-11T08:08:39;-997.69;;;-142.93;100.00
10840;BME280;5473;42.706;23.328;2022-12-11T08:11:09;-2004.56;;;-142.93;100.00
10840;BME280;5473;42.706;23.328;2022-12-11T08:13:36;261.34;;;-142.93;100.00
10840;BME280;5473;42.706;23.328;2022-12-11T08:16:04;3789.19;;;-142.93;100.00
10840;BME280;5473;42.706;23.328;2022-12-11T08:18:34;7573.25;;;-142.93;100.00
10840;BME280;5473;42.706;23.328;2022-12-11T08:21:04;12372.66;;;-142.93;100.00
10840;BME280;5473;42.706;23.328;2022-12-11T08:23:31;20978.44;;;-142.93;100.00
10840;BME280;5473;42.706;23.328;2022-12-11T08:25:58;12372.66;;;-142.93;100.00
10840;BME280;5473;42.706;23.328;2022-12-11T08:28:24;8078.13;;;-142.93;100.00
10840;BME280;5473;42.706;23.328;2022-12-11T08:30:51;3789.19;;;-142.93;100.00
10840;BME280;5473;42.706;23.328;2022-12-11T08:33:18;765.09;;;-142.93;100.00
10840;BME280;5473;42.706;23.328;2022-12-11T08:35:46;-997.69;;;-142.93;100.00
10840;BME280;5473;42.706;23.328;2022-12-11T08:38:13;2780.84;;;-142.93;100.00
10840;BME280;5473;42.706;23.328;2022-12-11T08:40:40;3284.97;;;-142.93;100.00
10840;BME280;5473;42.706;23.328;2022-12-11T08:43:07;2780.84;;;-142.93;100.00
10840;BME280;5473;42.706;23.328;2022-12-11T08:45:33;6059.09;;;-142.93;100.00
10840;BME280;5473;42.706;23.328;2022-12-11T08:48:00;5050.06;;;-142.93;100.00
10840;BME280;5473;42.706;23.328;2022-12-11T08:50:27;5050.06;;;-142.93;100.00
10840;BME280;5473;42.706;23.328;2022-12-11T08:52:56;3032.91;;;-142.93;100.00
10840;BME280;5473;42.706;23.328;2022-12-11T08:55:23;-242.34;;;-142.93;100.00
10840;BME280;5473;42.706;23.328;2022-12-11T08:57:50;-2256.25;;;-142.93;100.00
10840;BME280;5473;42.706;23.328;2022-12-11T09:00:16;-5274.78;;;-142.93;100.00
10840;BME280;5473;42.706;23.328;2022-12-11T09:02:44;-8541.75;;;-142.93;100.00
10840;BME280;5473;42.706;23.328;2022-12-11T09:05:10;-9797.38;;;-142.93;100.00
10840;BME280;5473;42.706;23.328;2022-12-11T09:07:37;-12307.22;;;-142.93;100.00
10840;BME280;5473;42.706;23.328;2022-12-11T09:10:06;-13310.63;;;-142.93;100.00
10840;BME280;5473;42.706;23.328;2022-12-11T09:12:35;-13812.22;;;-142.93;100.00
10840;BME280;5473;42.706;23.328;2022-12-11T09:15:02;-12808.97;;;-142.93;100.00
10840;BME280;5473;42.706;23.328;2022-12-11T09:17:29;-9797.38;;;-142.93;100.00
10840;BME280;5473;42.706;23.328;2022-12-11T09:19:56;-8792.91;;;-142.93;100.00
10840;BME280;5473;42.706;23.328;2022-12-11T09:22:23;-7788.13;;;-142.93;100.00
10840;BME280;5473;42.706;23.328;2022-12-11T09:24:49;-5274.78;;;-142.93;100.00
10840;BME280;5473;42.706;23.328;2022-12-11T09:27:17;-3765.88;;;-142.93;100.00
10840;BME280;5473;42.706;23.328;2022-12-11T09:29:45;-2759.53;;;-142.93;100.00
10840;BME280;5473;42.706;23.328;2022-12-11T09:32:12;2528.81;;;-142.93;100.00
10840;BME280;5473;42.706;23.328;2022-12-11T09:34:39;3537.09;;;-142.93;100.00
10840;BME280;5473;42.706;23.328;2022-12-11T09:37:06;5554.56;;;-142.93;100.00
10840;BME280;5473;42.706;23.328;2022-12-11T09:39:32;7573.25;;;-142.93;100.00
10840;BME280;5473;42.706;23.328;2022-12-11T09:42:03;8835.56;;;-142.93;100.00
10840;BME280;5473;42.706;23.328;2022-12-11T09:44:40;8583.06;;;-142.93;100.00
10840;BME280;5473;42.706;23.328;2022-12-11T09:47:22;10603.63;;;-142.93;100.00
10840;BME280;5473;42.706;23.328;2022-12-11T09:49:56;12119.88;;;-142.93;100.00
10840;BME280;5473;42.706;23.328;2022-12-11T09:52:31;10856.28;;;-142.93;100.00
10840;BME280;5473;42.706;23.328;2022-12-11T09:54:59;8078.13;;;-142.93;100.00
10840;BME280;5473;42.706;23.328;2022-12-11T09:57:37;15660.47;;;-142.93;100.00
10840;BME280;5473;42.706;23.328;2022-12-11T10:00:19;12372.66;;;-142.93;100.00
10840;BME280;5473;42.706;23.328;2022-12-11T10:03:29;11867.13;;;-142.93;100.00
10840;BME280;5473;42.706;23.328;2022-12-11T10:06:02;8330.59;;;-142.93;100.00
10840;BME280;5473;42.706;23.328;2022-12-11T10:08:38;7068.47;;;-142.93;100.00
10840;BME280;5473;42.706;23.328;2022-12-11T10:11:28;6563.75;;;-142.93;100.00
10840;BME280;5473;42.706;23.328;2022-12-11T10:14:07;4293.50;;;-142.93;100.00
10840;BME280;5473;42.706;23.328;2022-12-11T10:16:43;4545.66;;;-142.93;100.00
10840;BME280;5473;42.706;23.328;2022-12-11T10:19:14;3537.09;;;-142.93;100.00
10840;BME280;5473;42.706;23.328;2022-12-11T10:21:42;2276.78;;;-142.93;100.00
10840;BME280;5473;42.706;23.328;2022-12-11T10:24:17;2528.81;;;-142.93;100.00
10840;BME280;5473;42.706;23.328;2022-12-11T10:26:54;4293.50;;;-142.93;100.00
10840;BME280;5473;42.706;23.328;2022-12-11T10:29:22;3032.91;;;-142.93;100.00
10840;BME280;5473;42.706;23.328;2022-12-11T10:31:55;2528.81;;;-142.93;100.00
10840;BME280;5473;42.706;23.328;2022-12-11T10:34:29;9.50;;;-142.93;100.00
10840;BME280;5473;42.706;23.328;2022-12-11T10:36:58;-1501.19;;;-142.93;100.00
10840;BME280;5473;42.706;23.328;2022-12-11T10:39:27;-3765.88;;;-142.93;100.00
10840;BME280;5473;42.706;23.328;2022-12-11T10:41:54;-5023.34;;;-142.93;100.00
10840;BME280;5473;42.706;23.328;2022-12-11T10:44:23;-6783.03;;;-142.93;100.00
10840;BME280;5473;42.706;23.328;2022-12-11T10:47:02;-8290.56;;;-142.93;100.00
10840;BME280;5473;42.706;23.328;2022-12-11T10:49:32;-8039.34;;;-142.93;100.00
10840;BME280;5473;42.706;23.328;2022-12-11T10:51:59;-7536.88;;;-142.93;100.00
10840;BME280;5473;42.706;23.328;2022-12-11T10:54:30;-7285.59;;;-142.93;100.00
10840;BME280;5473;42.706;23.328;2022-12-11T10:56:59;-6029.00;;;-142.93;100.00
10840;BME280;5473;42.706;23.328;2022-12-11T10:59:31;-3011.16;;;-142.93;100.00
10840;BME280;5473;42.706;23.328;2022-12-11T11:02:00;2024.78;;;-142.93;100.00
10840;BME280;5473;42.706;23.328;2022-12-11T11:04:29;5302.28;;;-142.93;100.00
10840;BME280;5473;42.706;23.328;2022-12-11T11:07:02;1772.81;;;-142.93;100.00
10840;BME280;5473;42.706;23.328;2022-12-11T11:09:32;1268.91;;;-142.93;100.00
10840;BME280;5473;42.706;23.328;2022-12-11T11:12:00;-494.16;;;-142.93;100.00
10840;BME280;5473;42.706;23.328;2022-12-11T11:14:27;-242.34;;;-142.93;100.00
10840;BME280;5473;42.706;23.328;2022-12-11T11:16:55;1268.91;;;-142.93;100.00
10840;BME280;5473;42.706;23.328;2022-12-11T11:19:28;1520.84;;;-142.93;100.00
10840;BME280;5473;42.706;23.328;2022-12-11T11:21:58;4041.34;;;-142.93;100.00
10840;BME280;5473;42.706;23.328;2022-12-11T11:24:29;1772.81;;;-142.93;100.00
10840;BME280;5473;42.706;23.328;2022-12-11T11:26:59;-242.34;;;-142.93;100.00
10840;BME280;5473;42.706;23.328;2022-12-11T11:29:28;-997.69;;;-142.93;100.00
10840;BME280;5473;42.706;23.328;2022-12-11T11:31:59;-3011.16;;;-142.93;100.00
10840;BME280;5473;42.706;23.328;2022-12-11T11:34:29;-3765.88;;;-142.93;100.00
10840;BME280;5473;42.706;23.328;2022-12-11T11:36:56;-5023.34;;;-142.93;100.00
10840;BME280;5473;42.706;23.328;2022-12-11T11:39:30;-5274.78;;;-142.93;100.00
10840;BME280;5473;42.706;23.328;2022-12-11T11:42:02;-5526.22;;;-142.93;100.00
10840;BME280;5473;42.706;23.328;2022-12-11T11:44:35;-4771.91;;;-142.93;100.00
10840;BME280;5473;42.706;23.328;2022-12-11T11:47:12;-2256.25;;;-142.93;100.00
10840;BME280;5473;42.706;23.328;2022-12-11T11:49:49;261.34;;;-142.93;100.00
10840;BME280;5473;42.706;23.328;2022-12-11T11:52:21;3032.91;;;-142.93;100.00
10840;BME280;5473;42.706;23.328;2022-12-11T11:54:55;6059.09;;;-142.93;100.00
10840;BME280;5473;42.706;23.328;2022-12-11T11:57:32;6563.75;;;-142.93;100.00
10840;BME280;5473;42.706;23.328;2022-12-11T12:00:18;3284.97;;;-142.93;100.00
10840;BME280;5473;42.706;23.328;2022-12-11T12:02:46;2024.78;;;-142.93;100.00
10840;BME280;5473;42.706;23.328;2022-12-11T12:05:16;-745.94;;;-142.93;100.00
10840;BME280;5473;42.706;23.328;2022-12-11T12:07:49;-3011.16;;;-142.93;100.00
10840;BME280;5473;42.706;23.328;2022-12-11T12:10:23;-5777.63;;;-142.93;100.00
10840;BME280;5473;42.706;23.328;2022-12-11T12:12:57;-8290.56;;;-142.93;100.00
10840;BME280;5473;42.706;23.328;2022-12-11T12:15:34;-10048.47;;;-142.93;100.00
10840;BME280;5473;42.706;23.328;2022-12-11T12:18:12;-11052.53;;;-142.93;100.00
10840;BME280;5473;42.706;23.328;2022-12-11T12:20:49;-11303.53;;;-142.93;100.00
10840;BME280;5473;42.706;23.328;2022-12-11T12:23:42;-11805.41;;;-142.93;100.00
10840;BME280;5473;42.706;23.328;2022-12-11T12:26:18;-13059.81;;;-142.93;100.00
10840;BME280;5473;42.706;23.328;2022-12-11T12:28:55;-14062.97;;;-142.93;100.00
10840;BME280;5473;42.706;23.328;2022-12-11T12:31:39;-14565.91;;;-142.93;100.00
10840;BME280;5473;42.706;23.328;2022-12-11T12:34:15;-14565.91;;;-142.93;100.00
10840;BME280;5473;42.706;23.328;2022-12-11T12:36:49;-14565.91;;;-142.93;100.00
10840;BME280;5473;42.706;23.328;2022-12-11T12:39:26;-14565.91;;;-142.93;100.00
10840;BME280;5473;42.706;23.328;2022-12-11T12:42:03;-14565.91;;;-142.93;100.00
10840;BME280;5473;42.706;23.328;2022-12-11T12:44:39;-14565.91;;;-142.93;100.00
10840;BME280;5473;42.706;23.328;2022-12-11T12:47:12;-14565.91;;;-142.93;100.00
10840;BME280;5473;42.706;23.328;2022-12-11T12:49:41;-14565.91;;;-142.93;100.00